Time;durP1;ratioP1;P1;durP2;ratioP2;P2;SDS_P1;SDS_P2;PMS_P1;PMS_P2;Temp;Humidity;BMP_temperature;BMP_pressure;BME280_temperature;BME280_humidity;BME280_pressure;Samples;Min_cycle;Max_cycle;Signal;HPM_P1;HPM_P2
2023/08/25 00:01:39;;;;;;;5.30;2.40;;;;;;;;;;5034187;28;20522;-83
2023/08/25 00:04:04;;;;;;;4.68;1.92;;;;;;;;;;5031839;28;20073;-85
2023/08/25 00:06:29;;;;;;;5.85;2.20;;;;;;;;;;5034291;28;20143;-81
2023/08/25 00:08:55;;;;;;;6.30;2.40;;;;;;;;;;5032279;28;20507;-83
2023/08/25 00:11:20;;;;;;;6.22;2.15;;;;;;;;;;5030448;28;20059;-80
2023/08/25 00:13:45;;;;;;;2.92;1.70;;;;;;;;;;5030410;28;20037;-84
2023/08/25 00:16:13;;;;;;;4.32;2.03;;;;;;;;;;5036522;28;20037;-82
2023/08/25 00:18:38;;;;;;;4.05;1.95;;;;;;;;;;5033100;28;20038;-83
2023/08/25 00:21:04;;;;;;;6.38;2.22;;;;;;;;;;5035469;28;20054;-82
2023/08/25 00:23:30;;;;;;;7.28;2.10;;;;;;;;;;5037530;28;20021;-81
2023/08/25 00:25:55;;;;;;;5.78;2.10;;;;;;;;;;5015390;28;20098;-82
2023/08/25 00:28:20;;;;;;;1.90;1.75;;;;;;;;;;5031285;28;20033;-83
2023/08/25 00:30:47;;;;;;;10.05;1.98;;;;;;;;;;5032972;28;20030;-82
2023/08/25 00:33:13;;;;;;;5.07;1.60;;;;;;;;;;5013623;28;20033;-82
2023/08/25 00:35:41;;;;;;;3.58;1.75;;;;;;;;;;5033577;28;20480;-80
2023/08/25 00:38:06;;;;;;;1.90;1.60;;;;;;;;;;5009145;28;20037;-81
2023/08/25 00:40:36;;;;;;;6.28;2.10;;;;;;;;;;5060517;28;20045;-83
2023/08/25 00:43:01;;;;;;;4.82;1.77;;;;;;;;;;5031656;28;20100;-80
2023/08/25 00:45:26;;;;;;;3.92;1.83;;;;;;;;;;5032450;28;20037;-82
2023/08/25 00:47:52;;;;;;;2.72;1.45;;;;;;;;;;5031696;28;20025;-83
2023/08/25 00:50:17;;;;;;;4.30;1.70;;;;;;;;;;5014678;28;20036;-80
2023/08/25 00:52:43;;;;;;;3.72;1.80;;;;;;;;;;5032296;28;20130;-82
2023/08/25 00:55:08;;;;;;;6.60;1.38;;;;;;;;;;5032311;28;20064;-83
2023/08/25 00:57:34;;;;;;;3.90;1.90;;;;;;;;;;5016993;28;20034;-82
2023/08/25 01:00:00;;;;;;;2.05;1.42;;;;;;;;;;5035148;28;20025;-80
2023/08/25 01:02:25;;;;;;;3.92;1.80;;;;;;;;;;5031983;28;20362;-82
2023/08/25 01:04:50;;;;;;;5.22;1.58;;;;;;;;;;5014388;28;20119;-81
2023/08/25 01:07:16;;;;;;;3.63;1.63;;;;;;;;;;5030911;28;20079;-81
2023/08/25 01:09:41;;;;;;;4.22;1.90;;;;;;;;;;5034106;28;20033;-81
2023/08/25 01:12:27;;;;;;;7.45;1.80;;;;;;;;;;5029195;28;20469;-78
2023/08/25 01:15:16;;;;;;;3.13;1.77;;;;;;;;;;5029914;28;20045;-80
2023/08/25 01:17:53;;;;;;;3.90;1.65;;;;;;;;;;5016524;28;20548;-79
2023/08/25 01:20:22;;;;;;;2.92;1.80;;;;;;;;;;5017291;28;20386;-78
2023/08/25 01:23:06;;;;;;;2.90;1.60;;;;;;;;;;5037510;28;20064;-83
2023/08/25 01:25:32;;;;;;;5.75;1.60;;;;;;;;;;5037571;28;20034;-82
2023/08/25 01:28:06;;;;;;;2.50;1.60;;;;;;;;;;5033886;28;20046;-83
2023/08/25 01:30:34;;;;;;;3.90;1.77;;;;;;;;;;5033841;28;20030;-85
2023/08/25 01:33:00;;;;;;;3.20;1.80;;;;;;;;;;5032958;28;20093;-81
2023/08/25 01:35:41;;;;;;;3.63;1.80;;;;;;;;;;5035629;28;20065;-82
2023/08/25 01:38:29;;;;;;;2.60;1.70;;;;;;;;;;5031633;28;20044;-83
2023/08/25 01:41:20;;;;;;;5.63;1.58;;;;;;;;;;5030826;28;20040;-84
2023/08/25 01:43:51;;;;;;;1.27;1.20;;;;;;;;;;5032001;28;20033;-79
2023/08/25 01:46:18;;;;;;;1.60;1.50;;;;;;;;;;5034669;28;20049;-81
2023/08/25 01:48:47;;;;;;;2.13;1.40;;;;;;;;;;5029477;28;20040;-81
2023/08/25 01:51:13;;;;;;;1.42;1.33;;;;;;;;;;5031308;28;20017;-79
2023/08/25 01:53:39;;;;;;;4.25;1.30;;;;;;;;;;5033554;28;20394;-82
2023/08/25 01:56:04;;;;;;;1.42;1.27;;;;;;;;;;5036022;28;20034;-80
2023/08/25 01:58:29;;;;;;;5.97;1.55;;;;;;;;;;5035764;28;20090;-81
2023/08/25 02:00:55;;;;;;;1.60;1.50;;;;;;;;;;5035796;28;20179;-82
2023/08/25 02:03:20;;;;;;;1.52;1.30;;;;;;;;;;5022895;28;20050;-80
2023/08/25 02:05:45;;;;;;;5.38;1.33;;;;;;;;;;5034908;28;20066;-83
2023/08/25 02:08:11;;;;;;;3.45;1.00;;;;;;;;;;5037667;28;20034;-82
2023/08/25 02:10:36;;;;;;;1.92;1.10;;;;;;;;;;5015895;28;20061;-82
2023/08/25 02:13:02;;;;;;;1.23;1.20;;;;;;;;;;5033240;28;20037;-81
2023/08/25 02:15:27;;;;;;;2.78;1.48;;;;;;;;;;5034116;28;20324;-81
2023/08/25 02:17:52;;;;;;;1.20;1.20;;;;;;;;;;5034630;28;20116;-82
2023/08/25 02:20:18;;;;;;;3.45;1.30;;;;;;;;;;5036919;28;20025;-79
2023/08/25 02:22:44;;;;;;;2.25;1.40;;;;;;;;;;5035546;28;20061;-82
2023/08/25 02:25:09;;;;;;;3.30;1.60;;;;;;;;;;5033851;28;20079;-81
2023/08/25 02:27:34;;;;;;;3.78;1.40;;;;;;;;;;5035063;28;20033;-83
2023/08/25 02:30:00;;;;;;;2.25;1.20;;;;;;;;;;5037917;28;20029;-82
2023/08/25 02:32:25;;;;;;;1.67;1.17;;;;;;;;;;5037138;28;20117;-79
2023/08/25 02:34:50;;;;;;;1.35;1.20;;;;;;;;;;5035038;28;20025;-80
2023/08/25 02:37:16;;;;;;;1.92;1.17;;;;;;;;;;5036893;28;20053;-84
2023/08/25 02:39:41;;;;;;;2.38;1.40;;;;;;;;;;5035183;28;20445;-83
2023/08/25 02:42:06;;;;;;;1.38;1.27;;;;;;;;;;5018538;28;20040;-82
2023/08/25 02:44:31;;;;;;;3.40;1.40;;;;;;;;;;5034358;28;20025;-82
2023/08/25 02:46:57;;;;;;;1.10;1.10;;;;;;;;;;5036265;28;20040;-82
2023/08/25 02:49:23;;;;;;;8.85;1.45;;;;;;;;;;5041749;28;20038;-85
2023/08/25 02:51:49;;;;;;;2.20;1.50;;;;;;;;;;5035419;28;20040;-83
2023/08/25 02:54:14;;;;;;;1.50;1.40;;;;;;;;;;5021765;28;20033;-82
2023/08/25 02:56:39;;;;;;;5.13;2.03;;;;;;;;;;5038322;28;20101;-84
2023/08/25 02:59:05;;;;;;;2.92;1.40;;;;;;;;;;5034540;28;20563;-84
2023/08/25 03:01:30;;;;;;;1.60;1.50;;;;;;;;;;5014311;28;20034;-82
2023/08/25 03:03:56;;;;;;;2.55;1.70;;;;;;;;;;5035228;28;20109;-80
2023/08/25 03:06:22;;;;;;;3.47;1.60;;;;;;;;;;5031039;28;20033;-80
2023/08/25 03:08:47;;;;;;;2.28;1.27;;;;;;;;;;5034398;28;20036;-79
2023/08/25 03:11:13;;;;;;;5.13;1.40;;;;;;;;;;5034681;28;20037;-82
2023/08/25 03:13:38;;;;;;;2.33;1.20;;;;;;;;;;5039919;28;20701;-83
2023/08/25 03:16:03;;;;;;;4.88;1.30;;;;;;;;;;5034815;28;20503;-80
2023/08/25 03:18:29;;;;;;;2.28;1.60;;;;;;;;;;5021272;28;20667;-82
2023/08/25 03:20:58;;;;;;;4.32;1.33;;;;;;;;;;5034680;28;20028;-82
2023/08/25 03:23:23;;;;;;;2.00;1.50;;;;;;;;;;5033995;28;20064;-82
2023/08/25 03:25:48;;;;;;;5.10;1.80;;;;;;;;;;5016428;28;20026;-81
2023/08/25 03:28:14;;;;;;;2.78;1.63;;;;;;;;;;5033643;28;20424;-82
2023/08/25 03:30:39;;;;;;;3.90;1.60;;;;;;;;;;5033754;28;20093;-81
2023/08/25 03:33:05;;;;;;;3.22;2.10;;;;;;;;;;5033414;28;20028;-81
2023/08/25 03:35:34;;;;;;;2.42;1.60;;;;;;;;;;5033922;28;20475;-81
2023/08/25 03:38:00;;;;;;;2.42;1.48;;;;;;;;;;5032877;28;20042;-81
2023/08/25 03:40:25;;;;;;;1.73;1.35;;;;;;;;;;5017600;28;20109;-81
2023/08/25 03:42:50;;;;;;;2.40;1.50;;;;;;;;;;5035367;28;20041;-85
2023/08/25 03:45:16;;;;;;;4.22;1.88;;;;;;;;;;5038199;28;20029;-84
2023/08/25 03:47:41;;;;;;;3.42;1.40;;;;;;;;;;5037436;28;20025;-83
2023/08/25 03:50:07;;;;;;;2.17;1.73;;;;;;;;;;5034048;28;20052;-84
2023/08/25 03:52:40;;;;;;;1.75;1.55;;;;;;;;;;5017947;28;20038;-83
2023/08/25 03:55:05;;;;;;;1.73;1.33;;;;;;;;;;5014468;28;20049;-84
2023/08/25 03:57:31;;;;;;;4.00;1.30;;;;;;;;;;5023545;28;20522;-81
2023/08/25 03:59:56;;;;;;;2.67;1.38;;;;;;;;;;5035729;28;20042;-81
2023/08/25 04:02:21;;;;;;;4.35;1.52;;;;;;;;;;5034756;28;20030;-82
2023/08/25 04:04:47;;;;;;;8.27;1.80;;;;;;;;;;5013975;28;20098;-81
2023/08/25 04:07:13;;;;;;;3.97;1.70;;;;;;;;;;5032294;28;20036;-82
2023/08/25 04:09:38;;;;;;;2.67;1.75;;;;;;;;;;5033104;28;20037;-80
2023/08/25 04:12:04;;;;;;;4.40;1.85;;;;;;;;;;5013751;28;20021;-81
2023/08/25 04:14:29;;;;;;;5.68;1.90;;;;;;;;;;5033489;28;20463;-83
2023/08/25 04:16:54;;;;;;;4.35;1.83;;;;;;;;;;5031255;28;20059;-82
2023/08/25 04:19:21;;;;;;;2.55;1.80;;;;;;;;;;5034419;28;20033;-83
2023/08/25 04:21:46;;;;;;;3.90;2.10;;;;;;;;;;5033138;28;20272;-82
2023/08/25 04:24:12;;;;;;;4.63;1.75;;;;;;;;;;5032798;28;20078;-82
2023/08/25 04:26:38;;;;;;;2.22;2.03;;;;;;;;;;5031706;28;20261;-82
2023/08/25 04:29:06;;;;;;;4.90;2.30;;;;;;;;;;5013500;28;20075;-82
2023/08/25 04:31:31;;;;;;;3.85;1.98;;;;;;;;;;5030730;28;20029;-82
2023/08/25 04:33:57;;;;;;;2.20;1.92;;;;;;;;;;5032919;28;20106;-82
2023/08/25 04:36:22;;;;;;;2.63;1.60;;;;;;;;;;5033850;28;20045;-82
2023/08/25 04:38:47;;;;;;;3.63;1.80;;;;;;;;;;5032589;28;20044;-82
2023/08/25 04:41:12;;;;;;;3.72;2.20;;;;;;;;;;5036334;28;20495;-81
2023/08/25 04:43:38;;;;;;;3.60;2.00;;;;;;;;;;5032454;28;20029;-83
2023/08/25 04:46:03;;;;;;;4.43;1.98;;;;;;;;;;5031116;28;20420;-80
2023/08/25 04:48:28;;;;;;;4.28;2.42;;;;;;;;;;5029521;28;20037;-81
2023/08/25 04:50:54;;;;;;;2.60;2.00;;;;;;;;;;5012503;28;20026;-82
2023/08/25 04:53:19;;;;;;;2.13;1.98;;;;;;;;;;5031561;28;20420;-80
2023/08/25 04:55:46;;;;;;;5.05;1.90;;;;;;;;;;5033736;28;20347;-83
2023/08/25 04:58:12;;;;;;;2.30;1.60;;;;;;;;;;5034881;28;20033;-81
2023/08/25 05:00:37;;;;;;;3.45;1.70;;;;;;;;;;5016233;28;20045;-83
2023/08/25 05:03:02;;;;;;;3.22;1.92;;;;;;;;;;5034646;28;20030;-83
2023/08/25 05:05:28;;;;;;;4.13;1.70;;;;;;;;;;5016944;28;20049;-80
2023/08/25 05:07:53;;;;;;;1.83;1.63;;;;;;;;;;5034572;28;20121;-84
2023/08/25 05:10:18;;;;;;;3.15;1.83;;;;;;;;;;5033712;28;20033;-83
2023/08/25 05:12:44;;;;;;;1.80;1.70;;;;;;;;;;5034433;28;20406;-83
2023/08/25 05:15:10;;;;;;;1.52;1.40;;;;;;;;;;5033765;28;20507;-83
2023/08/25 05:17:35;;;;;;;1.83;1.50;;;;;;;;;;5035030;28;20049;-83
2023/08/25 05:20:01;;;;;;;1.10;1.10;;;;;;;;;;5034364;28;20037;-80
2023/08/25 05:22:26;;;;;;;1.70;1.60;;;;;;;;;;5015723;28;20463;-83
2023/08/25 05:24:52;;;;;;;4.10;1.50;;;;;;;;;;5034203;28;20087;-82
2023/08/25 05:27:17;;;;;;;2.10;1.73;;;;;;;;;;5033898;28;20042;-82
2023/08/25 05:29:43;;;;;;;1.60;1.50;;;;;;;;;;5037299;28;20029;-81
2023/08/25 05:32:08;;;;;;;3.10;1.65;;;;;;;;;;5037201;28;20499;-81
2023/08/25 05:34:34;;;;;;;2.60;1.80;;;;;;;;;;5034825;28;20033;-81
2023/08/25 05:37:00;;;;;;;1.75;1.50;;;;;;;;;;5035952;28;20038;-82
2023/08/25 05:39:25;;;;;;;1.92;1.40;;;;;;;;;;5019847;28;20030;-83
2023/08/25 05:41:50;;;;;;;1.55;1.45;;;;;;;;;;5037075;28;20025;-83
2023/08/25 05:44:16;;;;;;;1.63;1.52;;;;;;;;;;5036632;28;20116;-79
2023/08/25 05:46:42;;;;;;;2.03;1.80;;;;;;;;;;5019508;28;20093;-80
2023/08/25 05:49:07;;;;;;;2.15;1.40;;;;;;;;;;5019068;28;20041;-82
2023/08/25 05:51:32;;;;;;;3.70;2.08;;;;;;;;;;5018649;28;20041;-82
2023/08/25 05:53:57;;;;;;;3.22;1.60;;;;;;;;;;5036717;28;20036;-79
2023/08/25 05:56:23;;;;;;;2.40;1.48;;;;;;;;;;5036502;28;20513;-82
2023/08/25 05:58:48;;;;;;;1.52;1.42;;;;;;;;;;5036559;28;20049;-80
2023/08/25 06:01:14;;;;;;;1.67;1.42;;;;;;;;;;5014097;28;20527;-81
2023/08/25 06:03:40;;;;;;;2.03;1.63;;;;;;;;;;5036739;28;20037;-80
2023/08/25 06:06:05;;;;;;;2.28;1.80;;;;;;;;;;5036044;28;20383;-82
2023/08/25 06:08:31;;;;;;;2.25;1.50;;;;;;;;;;5036365;28;20028;-79
2023/08/25 06:10:56;;;;;;;2.17;1.30;;;;;;;;;;5036434;28;20050;-81
2023/08/25 06:13:22;;;;;;;1.60;1.50;;;;;;;;;;5035689;28;20120;-81
2023/08/25 06:15:51;;;;;;;2.50;1.60;;;;;;;;;;5036078;28;20045;-81
2023/08/25 06:18:16;;;;;;;1.73;1.45;;;;;;;;;;5035470;28;20045;-78
2023/08/25 06:20:42;;;;;;;2.50;1.67;;;;;;;;;;5036355;28;20494;-82
2023/08/25 06:23:08;;;;;;;1.70;1.60;;;;;;;;;;5017563;28;20095;-80
2023/08/25 06:25:33;;;;;;;2.30;1.77;;;;;;;;;;5034802;28;20090;-81
2023/08/25 06:27:59;;;;;;;1.65;1.55;;;;;;;;;;5035558;28;20125;-81
2023/08/25 06:30:26;;;;;;;2.00;1.80;;;;;;;;;;5035776;28;20059;-79
2023/08/25 06:32:52;;;;;;;1.67;1.58;;;;;;;;;;5035581;28;20030;-83
2023/08/25 06:35:18;;;;;;;3.00;1.38;;;;;;;;;;5034910;28;20038;-80
2023/08/25 06:37:44;;;;;;;4.90;1.67;;;;;;;;;;5035265;28;20064;-79
2023/08/25 06:40:09;;;;;;;2.33;1.75;;;;;;;;;;5035083;28;20376;-81
2023/08/25 06:42:35;;;;;;;1.75;1.52;;;;;;;;;;5035136;28;20037;-78
2023/08/25 06:45:00;;;;;;;2.53;1.70;;;;;;;;;;5035626;28;20032;-82
2023/08/25 06:47:28;;;;;;;1.50;1.40;;;;;;;;;;5034377;28;20030;-82
2023/08/25 06:49:54;;;;;;;2.10;1.60;;;;;;;;;;5034659;28;20060;-79
2023/08/25 06:52:20;;;;;;;1.67;1.58;;;;;;;;;;5034861;28;20055;-80
2023/08/25 06:54:45;;;;;;;1.60;1.50;;;;;;;;;;5016471;28;20380;-79
2023/08/25 06:57:11;;;;;;;5.57;1.70;;;;;;;;;;5034075;28;20030;-82
2023/08/25 06:59:36;;;;;;;1.70;1.60;;;;;;;;;;5034734;28;20061;-79
2023/08/25 07:02:02;;;;;;;2.03;1.55;;;;;;;;;;5033911;28;20037;-80
2023/08/25 07:04:27;;;;;;;3.35;1.83;;;;;;;;;;5034022;28;20031;-81
2023/08/25 07:06:53;;;;;;;2.53;1.67;;;;;;;;;;5033810;28;20042;-81
2023/08/25 07:09:18;;;;;;;1.95;1.48;;;;;;;;;;5034410;28;20532;-81
2023/08/25 07:11:43;;;;;;;3.38;2.10;;;;;;;;;;5035503;28;20022;-81
2023/08/25 07:14:09;;;;;;;8.05;1.90;;;;;;;;;;5034747;28;20061;-82
2023/08/25 07:16:35;;;;;;;1.83;1.63;;;;;;;;;;5017336;28;20059;-80
2023/08/25 07:19:00;;;;;;;5.18;1.63;;;;;;;;;;5017417;28;20086;-80
2023/08/25 07:21:25;;;;;;;3.88;1.90;;;;;;;;;;5031552;28;20072;-81
2023/08/25 07:23:51;;;;;;;8.25;2.38;;;;;;;;;;5015496;28;20028;-80
2023/08/25 07:26:16;;;;;;;4.32;2.25;;;;;;;;;;5035306;28;20037;-83
2023/08/25 07:28:41;;;;;;;4.50;2.50;;;;;;;;;;5031775;28;20034;-78
2023/08/25 07:31:07;;;;;;;10.52;3.33;;;;;;;;;;5029787;28;20523;-80
2023/08/25 07:33:32;;;;;;;7.03;2.63;;;;;;;;;;5031344;28;20599;-81
2023/08/25 07:35:58;;;;;;;3.38;2.22;;;;;;;;;;5029763;28;20026;-84
2023/08/25 07:38:23;;;;;;;5.20;2.55;;;;;;;;;;5026335;28;20475;-79
2023/08/25 07:40:49;;;;;;;5.35;2.88;;;;;;;;;;5011261;28;20026;-79
2023/08/25 07:43:14;;;;;;;4.10;2.50;;;;;;;;;;5028591;28;20744;-84
2023/08/25 07:45:40;;;;;;;3.42;2.40;;;;;;;;;;5011133;28;20399;-80
2023/08/25 07:48:05;;;;;;;4.00;2.60;;;;;;;;;;5034168;28;20021;-82
2023/08/25 07:50:31;;;;;;;4.22;2.80;;;;;;;;;;5037129;28;20021;-82
2023/08/25 07:52:57;;;;;;;9.32;3.03;;;;;;;;;;5034864;28;20045;-85
2023/08/25 07:55:23;;;;;;;6.05;2.42;;;;;;;;;;5025582;28;20029;-79
2023/08/25 07:57:48;;;;;;;4.80;2.40;;;;;;;;;;5034616;28;20117;-83
2023/08/25 08:00:17;;;;;;;5.03;2.47;;;;;;;;;;5041067;28;20032;-82
2023/08/25 08:02:44;;;;;;;4.68;2.67;;;;;;;;;;5038656;28;20497;-81
2023/08/25 08:05:10;;;;;;;3.70;2.30;;;;;;;;;;5034993;28;20105;-80
2023/08/25 08:07:36;;;;;;;5.53;2.20;;;;;;;;;;5016590;28;20033;-82
2023/08/25 08:10:03;;;;;;;3.92;2.40;;;;;;;;;;5033753;28;20029;-80
2023/08/25 08:12:28;;;;;;;5.40;1.90;;;;;;;;;;5032895;28;20038;-80
2023/08/25 08:14:53;;;;;;;6.18;2.25;;;;;;;;;;5016096;28;20059;-81
2023/08/25 08:17:19;;;;;;;2.00;1.85;;;;;;;;;;5032517;28;20048;-80
2023/08/25 08:19:44;;;;;;;5.18;2.15;;;;;;;;;;5032659;28;20044;-82
2023/08/25 08:22:10;;;;;;;5.60;2.10;;;;;;;;;;5033003;28;20041;-81
2023/08/25 08:24:36;;;;;;;4.38;1.92;;;;;;;;;;5032997;28;20097;-82
2023/08/25 08:27:01;;;;;;;3.65;2.05;;;;;;;;;;5033824;28;20021;-80
2023/08/25 08:29:27;;;;;;;3.80;2.30;;;;;;;;;;5033425;28;20045;-82
2023/08/25 08:31:55;;;;;;;2.65;2.08;;;;;;;;;;5014242;28;20078;-80
2023/08/25 08:34:20;;;;;;;3.38;2.25;;;;;;;;;;5032352;28;20487;-82
2023/08/25 08:36:47;;;;;;;3.70;2.20;;;;;;;;;;5031486;28;20040;-81
2023/08/25 08:39:12;;;;;;;3.72;2.70;;;;;;;;;;5032245;28;20245;-80
2023/08/25 08:41:38;;;;;;;2.75;1.90;;;;;;;;;;5031981;28;20022;-81
2023/08/25 08:44:05;;;;;;;2.50;2.25;;;;;;;;;;5031636;28;20455;-82
2023/08/25 08:46:33;;;;;;;3.28;2.47;;;;;;;;;;5031701;28;20065;-82
2023/08/25 08:48:59;;;;;;;2.47;2.00;;;;;;;;;;5031921;28;20060;-81
2023/08/25 08:51:24;;;;;;;3.40;1.73;;;;;;;;;;5031582;28;20614;-82
2023/08/25 08:53:52;;;;;;;1.80;1.70;;;;;;;;;;5031605;28;20025;-82
2023/08/25 08:56:18;;;;;;;3.63;2.13;;;;;;;;;;5031540;28;20163;-82
2023/08/25 08:58:43;;;;;;;3.45;2.40;;;;;;;;;;5031676;28;20030;-81
2023/08/25 09:01:10;;;;;;;2.20;2.00;;;;;;;;;;5031709;28;20061;-81
2023/08/25 09:03:37;;;;;;;3.25;2.22;;;;;;;;;;5035585;28;20555;-80
2023/08/25 09:06:03;;;;;;;6.38;2.42;;;;;;;;;;5034850;28;20097;-80
2023/08/25 09:08:30;;;;;;;2.92;2.22;;;;;;;;;;5018225;28;20120;-82
2023/08/25 09:10:59;;;;;;;4.18;2.47;;;;;;;;;;5037174;28;20033;-83
2023/08/25 09:13:25;;;;;;;4.10;3.10;;;;;;;;;;5034009;28;20057;-82
2023/08/25 09:15:53;;;;;;;3.92;2.90;;;;;;;;;;5038499;28;20045;-83
2023/08/25 09:18:18;;;;;;;6.35;2.63;;;;;;;;;;5036682;28;20027;-82
2023/08/25 09:20:44;;;;;;;4.65;2.60;;;;;;;;;;5036827;28;20053;-80
2023/08/25 09:26:18;;;;;;;3.53;2.60;;;;;;;;;;5026357;28;20041;-81
2023/08/25 09:28:43;;;;;;;3.08;2.72;;;;;;;;;;5036123;28;20033;-81
2023/08/25 09:31:26;;;;;;;4.43;2.80;;;;;;;;;;5031859;28;20115;-78
2023/08/25 09:33:58;;;;;;;6.35;2.63;;;;;;;;;;5034212;28;20044;-80
2023/08/25 09:36:23;;;;;;;3.38;2.30;;;;;;;;;;5030544;28;20580;-80
2023/08/25 09:38:52;;;;;;;6.53;2.60;;;;;;;;;;5031084;28;20026;-82
2023/08/25 09:41:43;;;;;;;3.15;2.53;;;;;;;;;;5031173;28;20052;-80
2023/08/25 09:44:08;;;;;;;3.72;2.90;;;;;;;;;;5032567;28;20041;-82
2023/08/25 09:46:34;;;;;;;6.35;2.85;;;;;;;;;;5033689;28;20051;-83
2023/08/25 09:49:04;;;;;;;6.60;2.58;;;;;;;;;;5033410;28;20029;-81
2023/08/25 09:51:35;;;;;;;4.88;2.95;;;;;;;;;;5036562;28;20307;-81
2023/08/25 09:54:05;;;;;;;3.10;2.60;;;;;;;;;;5019016;28;20023;-82
2023/08/25 09:56:32;;;;;;;5.10;2.47;;;;;;;;;;5021108;28;20045;-83
2023/08/25 09:58:58;;;;;;;3.55;2.53;;;;;;;;;;5008232;28;20057;-83
2023/08/25 10:01:24;;;;;;;7.15;2.63;;;;;;;;;;5029007;28;20261;-81
2023/08/25 10:03:50;;;;;;;3.50;2.83;;;;;;;;;;5036001;28;20138;-83
2023/08/25 10:06:16;;;;;;;5.40;3.13;;;;;;;;;;5028851;28;20060;-82
2023/08/25 10:08:42;;;;;;;5.28;2.58;;;;;;;;;;5024740;28;20041;-83
2023/08/25 10:11:08;;;;;;;9.25;3.33;;;;;;;;;;5042510;28;20296;-83
2023/08/25 10:13:37;;;;;;;3.38;2.70;;;;;;;;;;5042960;28;20029;-85
2023/08/25 10:16:07;;;;;;;5.50;2.70;;;;;;;;;;5035877;28;20042;-84
2023/08/25 10:18:42;;;;;;;4.68;2.63;;;;;;;;;;5036001;28;20082;-83
2023/08/25 10:21:09;;;;;;;4.50;2.58;;;;;;;;;;5035583;28;20037;-82
2023/08/25 10:23:36;;;;;;;3.55;2.28;;;;;;;;;;5039504;28;20081;-83
2023/08/25 10:26:03;;;;;;;3.13;2.42;;;;;;;;;;5037281;28;20042;-83
2023/08/25 10:28:30;;;;;;;3.15;2.80;;;;;;;;;;5018977;28;20067;-82
2023/08/25 10:30:59;;;;;;;4.55;2.53;;;;;;;;;;5039992;28;20052;-83
2023/08/25 10:33:25;;;;;;;5.30;2.90;;;;;;;;;;5018641;28;20034;-83
2023/08/25 10:35:53;;;;;;;4.70;2.97;;;;;;;;;;5038328;28;20038;-83
2023/08/25 10:38:19;;;;;;;5.13;3.08;;;;;;;;;;5037452;28;20048;-84
2023/08/25 10:40:55;;;;;;;4.70;2.70;;;;;;;;;;5036538;27;20037;-82
2023/08/25 10:43:33;;;;;;;2.47;2.28;;;;;;;;;;5037413;28;20287;-83
2023/08/25 10:46:06;;;;;;;4.68;2.80;;;;;;;;;;5036123;28;20033;-82
2023/08/25 10:48:31;;;;;;;4.40;2.53;;;;;;;;;;5035088;28;20026;-82
2023/08/25 10:51:17;;;;;;;6.75;2.55;;;;;;;;;;5037325;28;20028;-84
2023/08/25 10:53:52;;;;;;;5.43;2.65;;;;;;;;;;5034788;28;20065;-84
2023/08/25 10:56:18;;;;;;;4.70;2.65;;;;;;;;;;5035412;28;20032;-82
2023/08/25 10:59:02;;;;;;;4.55;2.30;;;;;;;;;;5035977;28;20033;-84
2023/08/25 11:01:52;;;;;;;3.88;2.42;;;;;;;;;;5037845;28;20055;-83
2023/08/25 11:04:23;;;;;;;5.18;2.70;;;;;;;;;;5038320;28;20105;-82
2023/08/25 11:06:50;;;;;;;3.15;2.55;;;;;;;;;;5032308;28;20056;-82
2023/08/25 11:09:18;;;;;;;6.00;2.70;;;;;;;;;;5035387;28;20033;-84
2023/08/25 11:11:45;;;;;;;4.65;2.97;;;;;;;;;;5037132;28;20039;-82
2023/08/25 11:14:14;;;;;;;3.88;2.78;;;;;;;;;;5039051;28;20045;-83
2023/08/25 11:16:40;;;;;;;6.10;2.60;;;;;;;;;;5035361;28;20044;-80
2023/08/25 11:19:09;;;;;;;6.88;3.47;;;;;;;;;;5021582;28;20458;-78
2023/08/25 11:21:35;;;;;;;4.05;2.50;;;;;;;;;;5038992;28;20033;-80
2023/08/25 11:24:01;;;;;;;6.47;2.90;;;;;;;;;;5040498;28;20033;-79
2023/08/25 11:26:26;;;;;;;3.10;2.85;;;;;;;;;;5037085;28;20038;-79
2023/08/25 11:28:53;;;;;;;3.35;3.00;;;;;;;;;;5020640;28;20038;-81
2023/08/25 11:31:23;;;;;;;4.05;2.80;;;;;;;;;;5038055;28;20065;-80
2023/08/25 11:33:51;;;;;;;9.70;3.45;;;;;;;;;;5037853;28;20030;-79
2023/08/25 11:36:17;;;;;;;5.25;3.30;;;;;;;;;;5037170;28;20025;-81
2023/08/25 11:38:46;;;;;;;6.93;3.35;;;;;;;;;;5037933;28;20036;-78
2023/08/25 11:41:11;;;;;;;4.40;2.90;;;;;;;;;;5017224;28;20036;-80
2023/08/25 11:43:37;;;;;;;5.80;2.78;;;;;;;;;;5000336;28;20496;-81
2023/08/25 11:46:06;;;;;;;7.18;2.97;;;;;;;;;;5018123;28;20040;-80
2023/08/25 11:48:35;;;;;;;3.20;2.90;;;;;;;;;;5017830;28;20159;-80
2023/08/25 11:51:01;;;;;;;5.38;2.95;;;;;;;;;;5018700;28;20046;-80
2023/08/25 11:53:26;;;;;;;6.70;2.65;;;;;;;;;;5000228;28;20122;-81
2023/08/25 11:55:59;;;;;;;3.63;2.70;;;;;;;;;;5018375;28;20030;-80
2023/08/25 11:58:31;;;;;;;4.50;2.78;;;;;;;;;;5018448;28;20034;-80
2023/08/25 12:01:15;;;;;;;3.53;2.90;;;;;;;;;;5000540;28;20030;-79
2023/08/25 12:03:44;;;;;;;5.20;2.88;;;;;;;;;;5018456;28;20050;-78
2023/08/25 12:06:11;;;;;;;3.70;3.03;;;;;;;;;;5018212;28;20029;-78
2023/08/25 12:08:39;;;;;;;6.75;3.28;;;;;;;;;;5018607;28;20566;-79
2023/08/25 12:11:06;;;;;;;4.13;2.42;;;;;;;;;;4999953;28;20055;-82
2023/08/25 12:13:37;;;;;;;6.18;2.80;;;;;;;;;;5017718;28;20049;-79
2023/08/25 12:16:03;;;;;;;4.97;2.90;;;;;;;;;;5010902;28;20037;-80
2023/08/25 12:18:36;;;;;;;2.97;2.67;;;;;;;;;;5037125;28;20117;-80
2023/08/25 12:21:04;;;;;;;4.88;2.78;;;;;;;;;;5037425;28;20093;-80
2023/08/25 12:23:40;;;;;;;4.97;2.88;;;;;;;;;;5036792;28;20063;-79
2023/08/25 12:26:14;;;;;;;4.82;2.58;;;;;;;;;;5037104;28;20034;-80
2023/08/25 12:28:40;;;;;;;3.85;2.70;;;;;;;;;;5037764;28;20041;-80
2023/08/25 12:31:06;;;;;;;3.80;2.78;;;;;;;;;;5037020;28;20041;-80
2023/08/25 12:33:31;;;;;;;4.90;3.00;;;;;;;;;;5036906;28;20037;-80
2023/08/25 12:35:58;;;;;;;5.75;2.88;;;;;;;;;;5036796;28;20322;-80
2023/08/25 12:38:24;;;;;;;3.15;2.95;;;;;;;;;;5027590;28;20064;-80
2023/08/25 12:40:49;;;;;;;3.50;2.90;;;;;;;;;;5056210;28;20037;-80
2023/08/25 12:43:14;;;;;;;4.07;3.22;;;;;;;;;;5028192;28;20034;-80
2023/08/25 12:45:40;;;;;;;8.23;2.70;;;;;;;;;;5019372;28;20040;-79
2023/08/25 12:48:07;;;;;;;10.52;3.17;;;;;;;;;;5037474;28;20049;-81
2023/08/25 12:50:36;;;;;;;9.35;3.40;;;;;;;;;;5019550;28;20045;-80
2023/08/25 12:53:01;;;;;;;5.10;3.10;;;;;;;;;;5019111;28;20046;-80
2023/08/25 12:55:27;;;;;;;8.27;3.10;;;;;;;;;;5018904;28;20086;-79
2023/08/25 12:57:55;;;;;;;4.00;2.90;;;;;;;;;;5036432;28;20116;-79
2023/08/25 13:00:20;;;;;;;8.57;3.53;;;;;;;;;;5036869;28;20372;-79
2023/08/25 13:02:51;;;;;;;9.70;3.40;;;;;;;;;;5037501;28;20032;-79
2023/08/25 13:05:17;;;;;;;5.88;3.35;;;;;;;;;;5019248;28;20026;-80
2023/08/25 13:07:42;;;;;;;4.25;2.85;;;;;;;;;;5037265;28;20058;-79
2023/08/25 13:10:08;;;;;;;6.38;3.47;;;;;;;;;;5036224;28;20041;-80
2023/08/25 13:12:37;;;;;;;5.40;3.40;;;;;;;;;;5034599;28;20085;-83
2023/08/25 13:15:06;;;;;;;4.93;3.15;;;;;;;;;;5043030;28;20056;-82
2023/08/25 13:17:31;;;;;;;5.35;3.58;;;;;;;;;;5047040;28;20050;-82
2023/08/25 13:19:57;;;;;;;5.38;3.30;;;;;;;;;;5031548;28;20099;-82
2023/08/25 13:22:22;;;;;;;6.63;3.67;;;;;;;;;;5037281;28;20077;-83
2023/08/25 13:24:48;;;;;;;5.78;3.58;;;;;;;;;;5016588;28;20133;-82
2023/08/25 13:27:13;;;;;;;4.93;3.47;;;;;;;;;;5030317;28;20030;-83
2023/08/25 13:29:41;;;;;;;6.13;3.58;;;;;;;;;;5016636;28;20487;-83
2023/08/25 13:32:07;;;;;;;3.65;3.30;;;;;;;;;;4984153;28;20575;-84
2023/08/25 13:34:33;;;;;;;3.70;3.28;;;;;;;;;;5032421;28;20065;-83
2023/08/25 13:36:58;;;;;;;10.30;4.15;;;;;;;;;;5017560;28;20037;-80
2023/08/25 13:39:23;;;;;;;5.82;4.13;;;;;;;;;;5020225;28;20062;-83
2023/08/25 13:41:48;;;;;;;5.63;3.63;;;;;;;;;;5035648;28;20036;-84
2023/08/25 13:44:14;;;;;;;4.50;3.50;;;;;;;;;;5033048;28;20098;-84
2023/08/25 13:46:39;;;;;;;4.30;3.50;;;;;;;;;;5030375;28;20105;-82
2023/08/25 13:49:04;;;;;;;6.13;3.63;;;;;;;;;;5032163;28;20036;-82
2023/08/25 13:51:30;;;;;;;4.97;3.35;;;;;;;;;;5037806;28;20036;-82
2023/08/25 13:53:58;;;;;;;3.17;2.88;;;;;;;;;;5041890;28;20104;-79
2023/08/25 13:56:24;;;;;;;7.50;3.17;;;;;;;;;;5039126;28;20033;-79
2023/08/25 13:58:49;;;;;;;5.55;2.78;;;;;;;;;;5039296;28;20032;-81
2023/08/25 14:01:15;;;;;;;4.80;2.72;;;;;;;;;;5020413;28;20380;-81
2023/08/25 14:03:40;;;;;;;4.95;3.40;;;;;;;;;;5038831;28;20037;-80
2023/08/25 14:06:06;;;;;;;7.97;3.08;;;;;;;;;;5039423;28;20038;-80
2023/08/25 14:08:31;;;;;;;5.10;3.25;;;;;;;;;;5021295;28;20093;-80
2023/08/25 14:10:56;;;;;;;4.13;2.72;;;;;;;;;;5039845;28;20503;-80
2023/08/25 14:13:22;;;;;;;6.60;2.70;;;;;;;;;;5038806;28;20033;-79
2023/08/25 14:15:47;;;;;;;4.18;2.70;;;;;;;;;;5039195;28;20033;-80
2023/08/25 14:18:13;;;;;;;6.40;2.72;;;;;;;;;;5039276;28;20037;-80
2023/08/25 14:20:38;;;;;;;6.63;2.80;;;;;;;;;;5039752;28;20928;-79
2023/08/25 14:23:03;;;;;;;4.88;2.75;;;;;;;;;;5038890;28;20044;-80
2023/08/25 14:25:29;;;;;;;9.23;2.80;;;;;;;;;;5038456;28;20037;-81
2023/08/25 14:27:55;;;;;;;7.70;3.33;;;;;;;;;;5036862;28;20033;-81
2023/08/25 14:30:21;;;;;;;5.13;3.70;;;;;;;;;;5014918;28;20078;-82
2023/08/25 14:33:07;;;;;;;;;;;;;;;;;;;;;
2023/08/25 14:35:37;;;;;;;3.97;2.88;;;;;;;;;;5024588;28;20402;-82
2023/08/25 14:38:03;;;;;;;4.93;3.08;;;;;;;;;;5016830;28;20415;-82
2023/08/25 14:40:28;;;;;;;7.93;3.08;;;;;;;;;;5035649;28;20033;-82
2023/08/25 14:42:58;;;;;;;6.40;3.03;;;;;;;;;;5036129;28;20080;-81
2023/08/25 14:45:23;;;;;;;9.23;3.38;;;;;;;;;;5020604;28;20045;-82